sensor_id;sensor_type;location;lat;lon;timestamp;P1;durP1;ratioP1;P2;durP2;ratioP2
35084;SDS011;21267;51.032;6.998;2023-04-15T00:01:38;5.95;;;3.20;;
35084;SDS011;21267;51.032;6.998;2023-04-15T00:04:04;8.50;;;3.38;;
35084;SDS011;21267;51.032;6.998;2023-04-15T00:06:31;7.68;;;3.70;;
35084;SDS011;21267;51.032;6.998;2023-04-15T00:09:06;8.30;;;3.70;;
35084;SDS011;21267;51.032;6.998;2023-04-15T00:11:34;7.60;;;3.25;;
35084;SDS011;21267;51.032;6.998;2023-04-15T00:14:01;6.43;;;3.20;;
35084;SDS011;21267;51.032;6.998;2023-04-15T00:16:36;8.00;;;2.80;;
35084;SDS011;21267;51.032;6.998;2023-04-15T00:19:03;5.90;;;3.60;;
35084;SDS011;21267;51.032;6.998;2023-04-15T00:21:31;6.85;;;2.88;;
35084;SDS011;21267;51.032;6.998;2023-04-15T00:24:01;5.15;;;2.60;;
35084;SDS011;21267;51.032;6.998;2023-04-15T00:26:29;5.32;;;2.92;;
35084;SDS011;21267;51.032;6.998;2023-04-15T00:28:55;9.02;;;3.17;;
35084;SDS011;21267;51.032;6.998;2023-04-15T00:31:22;4.72;;;2.95;;
35084;SDS011;21267;51.032;6.998;2023-04-15T00:33:50;3.90;;;2.63;;
35084;SDS011;21267;51.032;6.998;2023-04-15T00:36:31;4.30;;;2.78;;
35084;SDS011;21267;51.032;6.998;2023-04-15T00:38:59;4.35;;;2.78;;
35084;SDS011;21267;51.032;6.998;2023-04-15T00:41:40;7.28;;;3.05;;
35084;SDS011;21267;51.032;6.998;2023-04-15T00:44:06;7.82;;;3.30;;
35084;SDS011;21267;51.032;6.998;2023-04-15T00:46:47;8.50;;;3.40;;
35084;SDS011;21267;51.032;6.998;2023-04-15T00:49:16;4.10;;;2.30;;
35084;SDS011;21267;51.032;6.998;2023-04-15T00:51:59;6.95;;;3.03;;
35084;SDS011;21267;51.032;6.998;2023-04-15T00:54:26;8.10;;;3.10;;
35084;SDS011;21267;51.032;6.998;2023-04-15T00:56:52;5.00;;;3.08;;
35084;SDS011;21267;51.032;6.998;2023-04-15T00:59:26;5.47;;;2.80;;
35084;SDS011;21267;51.032;6.998;2023-04-15T01:04:21;6.37;;;3.43;;
35084;SDS011;21267;51.032;6.998;2023-04-15T01:07:02;6.20;;;3.22;;
35084;SDS011;21267;51.032;6.998;2023-04-15T01:09:29;5.28;;;2.67;;
35084;SDS011;21267;51.032;6.998;2023-04-15T01:12:10;8.57;;;3.42;;
35084;SDS011;21267;51.032;6.998;2023-04-15T01:14:41;6.03;;;3.42;;
35084;SDS011;21267;51.032;6.998;2023-04-15T01:17:23;4.57;;;3.30;;
35084;SDS011;21267;51.032;6.998;2023-04-15T01:19:50;4.68;;;3.05;;
35084;SDS011;21267;51.032;6.998;2023-04-15T01:22:18;5.68;;;3.20;;
35084;SDS011;21267;51.032;6.998;2023-04-15T01:24:48;7.30;;;3.50;;
35084;SDS011;21267;51.032;6.998;2023-04-15T01:27:20;5.18;;;2.97;;
35084;SDS011;21267;51.032;6.998;2023-04-15T01:29:48;8.88;;;3.53;;
35084;SDS011;21267;51.032;6.998;2023-04-15T01:32:14;5.80;;;3.03;;
35084;SDS011;21267;51.032;6.998;2023-04-15T01:34:49;6.40;;;3.50;;
35084;SDS011;21267;51.032;6.998;2023-04-15T01:37:15;6.90;;;3.88;;
35084;SDS011;21267;51.032;6.998;2023-04-15T01:39:42;6.72;;;3.83;;
35084;SDS011;21267;51.032;6.998;2023-04-15T01:42:23;4.70;;;3.13;;
35084;SDS011;21267;51.032;6.998;2023-04-15T01:44:50;7.90;;;4.18;;
35084;SDS011;21267;51.032;6.998;2023-04-15T01:47:30;7.40;;;4.53;;
35084;SDS011;21267;51.032;6.998;2023-04-15T01:49:57;11.48;;;4.15;;
35084;SDS011;21267;51.032;6.998;2023-04-15T01:52:27;12.38;;;8.07;;
35084;SDS011;21267;51.032;6.998;2023-04-15T01:54:54;10.13;;;5.82;;
35084;SDS011;21267;51.032;6.998;2023-04-15T01:57:21;10.13;;;4.35;;
35084;SDS011;21267;51.032;6.998;2023-04-15T01:59:48;4.57;;;3.72;;
35084;SDS011;21267;51.032;6.998;2023-04-15T02:02:16;8.10;;;4.65;;
35084;SDS011;21267;51.032;6.998;2023-04-15T02:04:43;5.53;;;3.58;;
35084;SDS011;21267;51.032;6.998;2023-04-15T02:09:37;6.97;;;4.28;;
35084;SDS011;21267;51.032;6.998;2023-04-15T02:12:04;17.80;;;9.38;;
35084;SDS011;21267;51.032;6.998;2023-04-15T02:14:31;11.27;;;6.50;;
35084;SDS011;21267;51.032;6.998;2023-04-15T02:16:57;10.63;;;5.18;;
35084;SDS011;21267;51.032;6.998;2023-04-15T02:19:32;9.40;;;5.10;;
35084;SDS011;21267;51.032;6.998;2023-04-15T02:22:01;7.15;;;3.55;;
35084;SDS011;21267;51.032;6.998;2023-04-15T02:24:28;6.53;;;3.95;;
35084;SDS011;21267;51.032;6.998;2023-04-15T02:26:58;6.05;;;3.50;;
35084;SDS011;21267;51.032;6.998;2023-04-15T02:29:27;8.23;;;3.80;;
35084;SDS011;21267;51.032;6.998;2023-04-15T02:31:54;7.40;;;3.75;;
35084;SDS011;21267;51.032;6.998;2023-04-15T02:34:22;7.57;;;4.45;;
35084;SDS011;21267;51.032;6.998;2023-04-15T02:36:48;8.32;;;4.60;;
35084;SDS011;21267;51.032;6.998;2023-04-15T02:39:20;6.28;;;3.63;;
35084;SDS011;21267;51.032;6.998;2023-04-15T02:41:47;7.15;;;4.47;;
35084;SDS011;21267;51.032;6.998;2023-04-15T02:44:18;10.40;;;4.63;;
35084;SDS011;21267;51.032;6.998;2023-04-15T02:46:46;8.52;;;4.15;;
35084;SDS011;21267;51.032;6.998;2023-04-15T02:49:16;8.27;;;4.18;;
35084;SDS011;21267;51.032;6.998;2023-04-15T02:51:43;6.93;;;4.10;;
35084;SDS011;21267;51.032;6.998;2023-04-15T02:54:15;6.45;;;3.97;;
35084;SDS011;21267;51.032;6.998;2023-04-15T02:56:45;5.55;;;3.83;;
35084;SDS011;21267;51.032;6.998;2023-04-15T02:59:12;10.30;;;4.50;;
35084;SDS011;21267;51.032;6.998;2023-04-15T03:01:38;6.28;;;4.10;;
35084;SDS011;21267;51.032;6.998;2023-04-15T03:09:01;6.78;;;3.67;;
35084;SDS011;21267;51.032;6.998;2023-04-15T03:11:28;7.75;;;4.32;;
35084;SDS011;21267;51.032;6.998;2023-04-15T03:13:55;7.75;;;4.13;;
35084;SDS011;21267;51.032;6.998;2023-04-15T03:16:22;8.23;;;4.65;;
35084;SDS011;21267;51.032;6.998;2023-04-15T03:18:49;7.68;;;4.30;;
35084;SDS011;21267;51.032;6.998;2023-04-15T03:21:15;9.68;;;4.43;;
35084;SDS011;21267;51.032;6.998;2023-04-15T03:23:42;5.13;;;3.63;;
35084;SDS011;21267;51.032;6.998;2023-04-15T03:26:22;8.75;;;4.25;;
35084;SDS011;21267;51.032;6.998;2023-04-15T03:28:50;8.90;;;3.85;;
35084;SDS011;21267;51.032;6.998;2023-04-15T03:31:17;5.10;;;3.63;;
35084;SDS011;21267;51.032;6.998;2023-04-15T03:33:43;5.70;;;3.58;;
35084;SDS011;21267;51.032;6.998;2023-04-15T03:38:39;4.88;;;4.10;;
35084;SDS011;21267;51.032;6.998;2023-04-15T03:41:06;5.37;;;4.37;;
35084;SDS011;21267;51.032;6.998;2023-04-15T03:43:33;7.28;;;4.53;;
35084;SDS011;21267;51.032;6.998;2023-04-15T03:46:01;5.40;;;3.88;;
35084;SDS011;21267;51.032;6.998;2023-04-15T03:48:30;6.80;;;4.43;;
35084;SDS011;21267;51.032;6.998;2023-04-15T03:50:56;7.75;;;4.38;;
35084;SDS011;21267;51.032;6.998;2023-04-15T03:53:23;10.35;;;3.90;;
35084;SDS011;21267;51.032;6.998;2023-04-15T03:55:49;6.10;;;4.22;;
35084;SDS011;21267;51.032;6.998;2023-04-15T03:58:16;11.47;;;4.60;;
35084;SDS011;21267;51.032;6.998;2023-04-15T04:00:44;6.43;;;3.80;;
35084;SDS011;21267;51.032;6.998;2023-04-15T04:03:11;6.10;;;3.90;;
35084;SDS011;21267;51.032;6.998;2023-04-15T04:05:39;9.60;;;4.68;;
35084;SDS011;21267;51.032;6.998;2023-04-15T04:08:06;7.00;;;4.80;;
35084;SDS011;21267;51.032;6.998;2023-04-15T04:10:34;8.05;;;5.15;;
35084;SDS011;21267;51.032;6.998;2023-04-15T04:13:01;6.95;;;4.43;;
35084;SDS011;21267;51.032;6.998;2023-04-15T04:15:27;7.50;;;4.45;;
35084;SDS011;21267;51.032;6.998;2023-04-15T04:17:54;8.57;;;4.10;;
35084;SDS011;21267;51.032;6.998;2023-04-15T04:20:21;10.25;;;4.63;;
35084;SDS011;21267;51.032;6.998;2023-04-15T04:22:49;7.28;;;4.95;;
35084;SDS011;21267;51.032;6.998;2023-04-15T04:25:17;9.27;;;5.18;;
35084;SDS011;21267;51.032;6.998;2023-04-15T04:27:45;7.82;;;4.72;;
35084;SDS011;21267;51.032;6.998;2023-04-15T04:30:14;8.80;;;5.18;;
35084;SDS011;21267;51.032;6.998;2023-04-15T04:32:41;9.60;;;5.20;;
35084;SDS011;21267;51.032;6.998;2023-04-15T04:35:09;7.40;;;4.93;;
35084;SDS011;21267;51.032;6.998;2023-04-15T04:37:36;9.50;;;4.57;;
35084;SDS011;21267;51.032;6.998;2023-04-15T04:40:03;10.32;;;4.57;;
35084;SDS011;21267;51.032;6.998;2023-04-15T04:42:31;6.22;;;4.90;;
35084;SDS011;21267;51.032;6.998;2023-04-15T04:45:05;9.57;;;5.18;;
35084;SDS011;21267;51.032;6.998;2023-04-15T04:47:32;7.80;;;4.90;;
35084;SDS011;21267;51.032;6.998;2023-04-15T04:49:59;8.77;;;4.80;;
35084;SDS011;21267;51.032;6.998;2023-04-15T04:54:54;10.52;;;4.53;;
35084;SDS011;21267;51.032;6.998;2023-04-15T04:57:20;9.75;;;4.72;;
35084;SDS011;21267;51.032;6.998;2023-04-15T04:59:49;6.88;;;4.55;;
35084;SDS011;21267;51.032;6.998;2023-04-15T05:02:16;9.03;;;5.37;;
35084;SDS011;21267;51.032;6.998;2023-04-15T05:04:44;6.75;;;4.65;;
35084;SDS011;21267;51.032;6.998;2023-04-15T05:07:11;8.80;;;5.80;;
35084;SDS011;21267;51.032;6.998;2023-04-15T05:09:37;7.85;;;5.78;;
35084;SDS011;21267;51.032;6.998;2023-04-15T05:12:05;6.90;;;4.95;;
35084;SDS011;21267;51.032;6.998;2023-04-15T05:14:33;7.10;;;5.30;;
35084;SDS011;21267;51.032;6.998;2023-04-15T05:16:59;7.07;;;4.97;;
35084;SDS011;21267;51.032;6.998;2023-04-15T05:19:26;7.22;;;5.63;;
35084;SDS011;21267;51.032;6.998;2023-04-15T05:21:52;7.40;;;4.75;;
35084;SDS011;21267;51.032;6.998;2023-04-15T05:24:19;10.27;;;4.97;;
35084;SDS011;21267;51.032;6.998;2023-04-15T05:26:46;7.28;;;4.75;;
35084;SDS011;21267;51.032;6.998;2023-04-15T05:29:14;11.27;;;5.30;;
35084;SDS011;21267;51.032;6.998;2023-04-15T05:31:41;8.43;;;5.50;;
35084;SDS011;21267;51.032;6.998;2023-04-15T05:34:08;8.97;;;5.50;;
35084;SDS011;21267;51.032;6.998;2023-04-15T05:36:37;8.05;;;6.05;;
35084;SDS011;21267;51.032;6.998;2023-04-15T05:39:06;9.52;;;5.32;;
35084;SDS011;21267;51.032;6.998;2023-04-15T05:41:33;9.38;;;5.88;;
35084;SDS011;21267;51.032;6.998;2023-04-15T05:44:02;13.57;;;5.15;;
35084;SDS011;21267;51.032;6.998;2023-04-15T05:46:29;9.60;;;6.17;;
35084;SDS011;21267;51.032;6.998;2023-04-15T05:48:56;5.75;;;4.95;;
35084;SDS011;21267;51.032;6.998;2023-04-15T05:51:24;8.05;;;5.70;;
35084;SDS011;21267;51.032;6.998;2023-04-15T05:53:51;9.80;;;6.10;;
35084;SDS011;21267;51.032;6.998;2023-04-15T05:56:17;8.80;;;6.10;;
35084;SDS011;21267;51.032;6.998;2023-04-15T05:58:46;10.20;;;6.57;;
35084;SDS011;21267;51.032;6.998;2023-04-15T06:01:12;10.05;;;6.82;;
35084;SDS011;21267;51.032;6.998;2023-04-15T06:03:39;29.80;;;18.40;;
35084;SDS011;21267;51.032;6.998;2023-04-15T06:06:11;10.38;;;8.60;;
35084;SDS011;21267;51.032;6.998;2023-04-15T06:08:40;9.75;;;6.60;;
35084;SDS011;21267;51.032;6.998;2023-04-15T06:11:08;8.95;;;6.03;;
35084;SDS011;21267;51.032;6.998;2023-04-15T06:13:35;8.32;;;6.40;;
35084;SDS011;21267;51.032;6.998;2023-04-15T06:16:01;11.52;;;7.13;;
35084;SDS011;21267;51.032;6.998;2023-04-15T06:18:29;10.27;;;6.47;;
35084;SDS011;21267;51.032;6.998;2023-04-15T06:20:55;8.48;;;6.18;;
35084;SDS011;21267;51.032;6.998;2023-04-15T06:23:22;11.80;;;6.50;;
35084;SDS011;21267;51.032;6.998;2023-04-15T06:25:51;9.95;;;6.85;;
35084;SDS011;21267;51.032;6.998;2023-04-15T06:28:18;10.98;;;6.95;;
35084;SDS011;21267;51.032;6.998;2023-04-15T06:33:39;15.02;;;7.30;;
35084;SDS011;21267;51.032;6.998;2023-04-15T06:36:19;11.13;;;7.28;;
35084;SDS011;21267;51.032;6.998;2023-04-15T06:38:49;9.73;;;6.97;;
35084;SDS011;21267;51.032;6.998;2023-04-15T06:41:16;8.73;;;7.28;;
35084;SDS011;21267;51.032;6.998;2023-04-15T06:43:43;11.07;;;7.77;;
35084;SDS011;21267;51.032;6.998;2023-04-15T06:46:24;11.55;;;8.00;;
35084;SDS011;21267;51.032;6.998;2023-04-15T06:48:51;9.37;;;7.40;;
35084;SDS011;21267;51.032;6.998;2023-04-15T06:51:33;9.55;;;7.53;;
35084;SDS011;21267;51.032;6.998;2023-04-15T06:54:01;12.38;;;7.53;;
35084;SDS011;21267;51.032;6.998;2023-04-15T06:56:38;11.80;;;7.20;;
35084;SDS011;21267;51.032;6.998;2023-04-15T06:59:07;9.20;;;7.53;;
35084;SDS011;21267;51.032;6.998;2023-04-15T07:01:34;9.77;;;7.72;;
35084;SDS011;21267;51.032;6.998;2023-04-15T07:04:08;10.23;;;7.45;;
35084;SDS011;21267;51.032;6.998;2023-04-15T07:06:36;11.75;;;7.63;;
35084;SDS011;21267;51.032;6.998;2023-04-15T07:09:03;8.02;;;7.22;;
35084;SDS011;21267;51.032;6.998;2023-04-15T07:11:31;12.52;;;8.23;;
35084;SDS011;21267;51.032;6.998;2023-04-15T07:13:59;10.15;;;7.80;;
35084;SDS011;21267;51.032;6.998;2023-04-15T07:16:25;9.07;;;6.85;;
35084;SDS011;21267;51.032;6.998;2023-04-15T07:19:13;9.20;;;6.97;;
35084;SDS011;21267;51.032;6.998;2023-04-15T07:21:40;10.37;;;7.33;;
35084;SDS011;21267;51.032;6.998;2023-04-15T07:26:50;7.53;;;5.85;;
35084;SDS011;21267;51.032;6.998;2023-04-15T07:29:16;5.97;;;4.80;;
35084;SDS011;21267;51.032;6.998;2023-04-15T07:31:57;6.05;;;4.75;;
35084;SDS011;21267;51.032;6.998;2023-04-15T07:34:25;6.85;;;5.03;;
35084;SDS011;21267;51.032;6.998;2023-04-15T07:36:55;5.47;;;4.28;;
35084;SDS011;21267;51.032;6.998;2023-04-15T07:39:22;4.53;;;4.03;;
35084;SDS011;21267;51.032;6.998;2023-04-15T07:41:49;8.23;;;4.28;;
35084;SDS011;21267;51.032;6.998;2023-04-15T07:44:15;5.13;;;3.58;;
35084;SDS011;21267;51.032;6.998;2023-04-15T07:46:56;5.30;;;3.58;;
35084;SDS011;21267;51.032;6.998;2023-04-15T07:51:50;3.00;;;2.70;;
35084;SDS011;21267;51.032;6.998;2023-04-15T07:54:18;3.63;;;2.90;;
35084;SDS011;21267;51.032;6.998;2023-04-15T07:56:45;6.45;;;2.88;;
35084;SDS011;21267;51.032;6.998;2023-04-15T08:01:43;4.82;;;2.80;;
35084;SDS011;21267;51.032;6.998;2023-04-15T08:04:10;2.65;;;2.28;;
35084;SDS011;21267;51.032;6.998;2023-04-15T08:06:37;4.53;;;2.45;;
35084;SDS011;21267;51.032;6.998;2023-04-15T08:09:05;3.53;;;1.92;;
35084;SDS011;21267;51.032;6.998;2023-04-15T08:11:47;3.05;;;1.85;;
35084;SDS011;21267;51.032;6.998;2023-04-15T08:14:14;2.65;;;1.77;;
35084;SDS011;21267;51.032;6.998;2023-04-15T08:16:55;2.53;;;2.00;;
35084;SDS011;21267;51.032;6.998;2023-04-15T08:19:21;2.53;;;2.33;;
35084;SDS011;21267;51.032;6.998;2023-04-15T08:21:49;2.53;;;2.10;;
35084;SDS011;21267;51.032;6.998;2023-04-15T08:24:21;3.92;;;2.40;;
35084;SDS011;21267;51.032;6.998;2023-04-15T08:26:47;4.23;;;2.00;;
35084;SDS011;21267;51.032;6.998;2023-04-15T08:29:14;3.47;;;2.13;;
35084;SDS011;21267;51.032;6.998;2023-04-15T08:31:41;4.33;;;3.30;;
35084;SDS011;21267;51.032;6.998;2023-04-15T08:34:08;2.40;;;2.00;;
35084;SDS011;21267;51.032;6.998;2023-04-15T08:36:34;5.03;;;2.10;;
35084;SDS011;21267;51.032;6.998;2023-04-15T08:39:01;4.10;;;2.35;;
35084;SDS011;21267;51.032;6.998;2023-04-15T08:41:35;3.88;;;2.33;;
35084;SDS011;21267;51.032;6.998;2023-04-15T08:44:06;3.00;;;2.67;;
35084;SDS011;21267;51.032;6.998;2023-04-15T08:46:32;3.20;;;1.92;;
35084;SDS011;21267;51.032;6.998;2023-04-15T08:49:02;2.50;;;2.05;;
35084;SDS011;21267;51.032;6.998;2023-04-15T08:51:30;4.22;;;1.67;;
35084;SDS011;21267;51.032;6.998;2023-04-15T08:54:02;4.72;;;2.22;;
35084;SDS011;21267;51.032;6.998;2023-04-15T08:56:30;3.22;;;2.38;;
35084;SDS011;21267;51.032;6.998;2023-04-15T08:58:58;2.85;;;2.50;;
35084;SDS011;21267;51.032;6.998;2023-04-15T09:01:25;3.10;;;2.28;;
35084;SDS011;21267;51.032;6.998;2023-04-15T09:03:52;7.07;;;5.00;;
35084;SDS011;21267;51.032;6.998;2023-04-15T09:06:20;3.33;;;2.55;;
35084;SDS011;21267;51.032;6.998;2023-04-15T09:08:49;3.60;;;2.22;;
35084;SDS011;21267;51.032;6.998;2023-04-15T09:11:17;3.40;;;3.05;;
35084;SDS011;21267;51.032;6.998;2023-04-15T09:13:45;3.30;;;2.60;;
35084;SDS011;21267;51.032;6.998;2023-04-15T09:16:12;3.25;;;2.47;;
35084;SDS011;21267;51.032;6.998;2023-04-15T09:18:39;3.00;;;2.50;;
35084;SDS011;21267;51.032;6.998;2023-04-15T09:21:07;3.03;;;2.53;;
35084;SDS011;21267;51.032;6.998;2023-04-15T09:23:38;2.92;;;2.58;;
35084;SDS011;21267;51.032;6.998;2023-04-15T09:26:06;4.13;;;2.20;;
35084;SDS011;21267;51.032;6.998;2023-04-15T09:31:06;2.92;;;2.05;;
35084;SDS011;21267;51.032;6.998;2023-04-15T09:33:33;2.97;;;2.17;;
35084;SDS011;21267;51.032;6.998;2023-04-15T09:38:27;2.70;;;1.90;;
35084;SDS011;21267;51.032;6.998;2023-04-15T09:40:54;2.63;;;2.35;;
35084;SDS011;21267;51.032;6.998;2023-04-15T09:43:21;5.63;;;1.85;;
35084;SDS011;21267;51.032;6.998;2023-04-15T09:45:49;2.85;;;2.28;;
35084;SDS011;21267;51.032;6.998;2023-04-15T09:48:20;3.05;;;2.58;;
35084;SDS011;21267;51.032;6.998;2023-04-15T09:50:48;3.45;;;2.33;;
35084;SDS011;21267;51.032;6.998;2023-04-15T09:55:49;4.50;;;3.40;;
35084;SDS011;21267;51.032;6.998;2023-04-15T09:58:18;4.00;;;2.70;;
35084;SDS011;21267;51.032;6.998;2023-04-15T10:00:49;3.85;;;2.60;;
35084;SDS011;21267;51.032;6.998;2023-04-15T10:03:20;4.18;;;3.72;;
35084;SDS011;21267;51.032;6.998;2023-04-15T10:05:56;3.90;;;3.35;;
35084;SDS011;21267;51.032;6.998;2023-04-15T10:08:31;5.68;;;4.20;;
35084;SDS011;21267;51.032;6.998;2023-04-15T10:11:03;4.68;;;3.97;;
35084;SDS011;21267;51.032;6.998;2023-04-15T10:13:30;3.53;;;3.10;;
35084;SDS011;21267;51.032;6.998;2023-04-15T10:16:04;4.05;;;3.30;;
35084;SDS011;21267;51.032;6.998;2023-04-15T10:18:53;4.25;;;3.50;;
35084;SDS011;21267;51.032;6.998;2023-04-15T10:21:21;3.88;;;3.38;;
35084;SDS011;21267;51.032;6.998;2023-04-15T10:26:15;3.63;;;3.33;;
35084;SDS011;21267;51.032;6.998;2023-04-15T10:28:45;3.50;;;3.20;;
35084;SDS011;21267;51.032;6.998;2023-04-15T10:31:14;3.70;;;3.40;;
35084;SDS011;21267;51.032;6.998;2023-04-15T10:33:43;4.50;;;3.90;;
35084;SDS011;21267;51.032;6.998;2023-04-15T10:36:12;4.07;;;3.50;;
35084;SDS011;21267;51.032;6.998;2023-04-15T10:38:41;5.30;;;3.72;;
35084;SDS011;21267;51.032;6.998;2023-04-15T10:41:20;4.38;;;3.83;;
35084;SDS011;21267;51.032;6.998;2023-04-15T10:44:02;4.78;;;4.05;;
35084;SDS011;21267;51.032;6.998;2023-04-15T10:46:37;4.35;;;3.35;;
35084;SDS011;21267;51.032;6.998;2023-04-15T10:49:15;3.58;;;3.22;;
35084;SDS011;21267;51.032;6.998;2023-04-15T10:51:51;4.03;;;3.60;;
35084;SDS011;21267;51.032;6.998;2023-04-15T10:54:37;3.60;;;3.30;;
35084;SDS011;21267;51.032;6.998;2023-04-15T10:59:32;3.43;;;3.13;;
35084;SDS011;21267;51.032;6.998;2023-04-15T11:02:05;3.92;;;2.72;;
35084;SDS011;21267;51.032;6.998;2023-04-15T11:10:02;3.17;;;2.53;;
35084;SDS011;21267;51.032;6.998;2023-04-15T11:12:33;2.53;;;2.33;;
35084;SDS011;21267;51.032;6.998;2023-04-15T11:17:52;2.50;;;2.30;;
35084;SDS011;21267;51.032;6.998;2023-04-15T11:20:19;2.38;;;2.17;;
35084;SDS011;21267;51.032;6.998;2023-04-15T11:22:50;2.67;;;2.47;;
35084;SDS011;21267;51.032;6.998;2023-04-15T11:25:33;2.70;;;2.43;;
35084;SDS011;21267;51.032;6.998;2023-04-15T11:28:01;2.45;;;2.25;;
35084;SDS011;21267;51.032;6.998;2023-04-15T11:30:29;2.47;;;2.28;;
35084;SDS011;21267;51.032;6.998;2023-04-15T11:33:00;3.13;;;2.83;;
35084;SDS011;21267;51.032;6.998;2023-04-15T11:35:28;3.60;;;2.80;;
35084;SDS011;21267;51.032;6.998;2023-04-15T11:37:55;3.70;;;3.40;;
35084;SDS011;21267;51.032;6.998;2023-04-15T11:40:24;2.92;;;2.70;;
35084;SDS011;21267;51.032;6.998;2023-04-15T11:43:14;2.65;;;2.13;;
35084;SDS011;21267;51.032;6.998;2023-04-15T11:45:56;3.90;;;2.92;;
35084;SDS011;21267;51.032;6.998;2023-04-15T11:48:25;3.25;;;2.97;;
35084;SDS011;21267;51.032;6.998;2023-04-15T11:51:11;3.67;;;3.38;;
35084;SDS011;21267;51.032;6.998;2023-04-15T11:56:18;21.92;;;3.78;;
35084;SDS011;21267;51.032;6.998;2023-04-15T11:58:53;6.13;;;4.07;;
35084;SDS011;21267;51.032;6.998;2023-04-15T12:01:34;4.20;;;3.90;;
35084;SDS011;21267;51.032;6.998;2023-04-15T12:06:48;3.95;;;3.55;;
35084;SDS011;21267;51.032;6.998;2023-04-15T12:09:15;6.00;;;3.88;;
35084;SDS011;21267;51.032;6.998;2023-04-15T12:16:46;5.43;;;4.90;;
35084;SDS011;21267;51.032;6.998;2023-04-15T12:19:19;4.90;;;4.50;;
35084;SDS011;21267;51.032;6.998;2023-04-15T12:21:52;3.97;;;3.65;;
35084;SDS011;21267;51.032;6.998;2023-04-15T12:24:26;4.85;;;3.97;;
35084;SDS011;21267;51.032;6.998;2023-04-15T12:26:53;4.28;;;3.97;;
35084;SDS011;21267;51.032;6.998;2023-04-15T12:29:26;4.72;;;4.32;;
35084;SDS011;21267;51.032;6.998;2023-04-15T12:31:55;4.57;;;4.20;;
35084;SDS011;21267;51.032;6.998;2023-04-15T12:34:29;5.72;;;5.22;;
35084;SDS011;21267;51.032;6.998;2023-04-15T12:36:59;5.75;;;5.30;;
35084;SDS011;21267;51.032;6.998;2023-04-15T12:39:27;6.57;;;5.97;;
35084;SDS011;21267;51.032;6.998;2023-04-15T12:41:56;5.97;;;5.50;;
35084;SDS011;21267;51.032;6.998;2023-04-15T12:44:24;6.00;;;5.47;;
35084;SDS011;21267;51.032;6.998;2023-04-15T12:46:51;5.97;;;5.47;;
35084;SDS011;21267;51.032;6.998;2023-04-15T12:49:21;6.55;;;6.00;;
35084;SDS011;21267;51.032;6.998;2023-04-15T12:51:50;6.32;;;5.80;;
35084;SDS011;21267;51.032;6.998;2023-04-15T12:54:18;6.78;;;6.07;;
35084;SDS011;21267;51.032;6.998;2023-04-15T12:56:47;6.63;;;6.07;;
35084;SDS011;21267;51.032;6.998;2023-04-15T12:59:15;7.32;;;6.65;;
35084;SDS011;21267;51.032;6.998;2023-04-15T13:01:44;7.57;;;6.97;;
35084;SDS011;21267;51.032;6.998;2023-04-15T13:06:38;8.02;;;7.18;;
35084;SDS011;21267;51.032;6.998;2023-04-15T13:09:05;7.35;;;6.65;;
35084;SDS011;21267;51.032;6.998;2023-04-15T13:11:32;7.32;;;6.63;;
35084;SDS011;21267;51.032;6.998;2023-04-15T13:13:59;7.00;;;6.40;;
35084;SDS011;21267;51.032;6.998;2023-04-15T13:16:27;7.65;;;6.95;;
35084;SDS011;21267;51.032;6.998;2023-04-15T13:18:53;8.00;;;7.30;;
35084;SDS011;21267;51.032;6.998;2023-04-15T13:21:20;7.55;;;6.85;;
35084;SDS011;21267;51.032;6.998;2023-04-15T13:23:47;7.90;;;7.20;;
35084;SDS011;21267;51.032;6.998;2023-04-15T13:26:15;6.68;;;6.07;;
35084;SDS011;21267;51.032;6.998;2023-04-15T13:28:42;6.65;;;5.95;;
35084;SDS011;21267;51.032;6.998;2023-04-15T13:31:09;7.38;;;6.45;;
35084;SDS011;21267;51.032;6.998;2023-04-15T13:33:36;6.22;;;5.60;;
35084;SDS011;21267;51.032;6.998;2023-04-15T13:36:04;6.88;;;6.18;;
35084;SDS011;21267;51.032;6.998;2023-04-15T13:38:31;7.63;;;7.03;;
35084;SDS011;21267;51.032;6.998;2023-04-15T13:40:58;13.15;;;7.60;;
35084;SDS011;21267;51.032;6.998;2023-04-15T13:43:25;9.27;;;7.53;;
35084;SDS011;21267;51.032;6.998;2023-04-15T13:45:54;8.18;;;7.38;;
35084;SDS011;21267;51.032;6.998;2023-04-15T13:48:21;6.78;;;6.18;;
35084;SDS011;21267;51.032;6.998;2023-04-15T13:50:48;8.35;;;5.63;;
35084;SDS011;21267;51.032;6.998;2023-04-15T13:53:15;5.63;;;4.97;;
35084;SDS011;21267;51.032;6.998;2023-04-15T13:55:42;5.57;;;4.47;;
35084;SDS011;21267;51.032;6.998;2023-04-15T13:58:09;5.13;;;4.63;;
35084;SDS011;21267;51.032;6.998;2023-04-15T14:00:37;6.10;;;5.32;;
35084;SDS011;21267;51.032;6.998;2023-04-15T14:03:05;7.78;;;7.07;;
35084;SDS011;21267;51.032;6.998;2023-04-15T14:05:34;8.13;;;7.38;;
35084;SDS011;21267;51.032;6.998;2023-04-15T14:08:00;8.70;;;8.00;;
35084;SDS011;21267;51.032;6.998;2023-04-15T14:10:28;8.63;;;7.85;;
35084;SDS011;21267;51.032;6.998;2023-04-15T14:12:54;10.05;;;7.32;;
35084;SDS011;21267;51.032;6.998;2023-04-15T14:15:21;7.18;;;6.57;;
35084;SDS011;21267;51.032;6.998;2023-04-15T14:17:48;6.03;;;5.47;;
35084;SDS011;21267;51.032;6.998;2023-04-15T14:20:16;6.55;;;4.72;;
35084;SDS011;21267;51.032;6.998;2023-04-15T14:22:43;4.35;;;3.95;;
35084;SDS011;21267;51.032;6.998;2023-04-15T14:25:09;4.07;;;3.67;;
35084;SDS011;21267;51.032;6.998;2023-04-15T14:27:45;4.10;;;3.65;;
35084;SDS011;21267;51.032;6.998;2023-04-15T14:30:11;4.53;;;4.10;;
35084;SDS011;21267;51.032;6.998;2023-04-15T14:32:38;4.07;;;3.67;;
35084;SDS011;21267;51.032;6.998;2023-04-15T14:35:05;7.03;;;4.97;;
35084;SDS011;21267;51.032;6.998;2023-04-15T14:37:32;5.10;;;3.80;;
35084;SDS011;21267;51.032;6.998;2023-04-15T14:39:59;4.43;;;3.90;;
35084;SDS011;21267;51.032;6.998;2023-04-15T14:42:26;4.25;;;3.85;;
35084;SDS011;21267;51.032;6.998;2023-04-15T14:44:52;3.70;;;3.40;;
35084;SDS011;21267;51.032;6.998;2023-04-15T14:47:19;4.38;;;3.92;;
35084;SDS011;21267;51.032;6.998;2023-04-15T14:49:46;5.68;;;4.10;;
35084;SDS011;21267;51.032;6.998;2023-04-15T14:52:12;6.30;;;4.13;;
35084;SDS011;21267;51.032;6.998;2023-04-15T14:54:39;5.40;;;4.28;;
35084;SDS011;21267;51.032;6.998;2023-04-15T14:57:06;6.25;;;4.43;;
35084;SDS011;21267;51.032;6.998;2023-04-15T14:59:34;5.63;;;3.58;;
35084;SDS011;21267;51.032;6.998;2023-04-15T15:02:00;4.70;;;3.60;;
35084;SDS011;21267;51.032;6.998;2023-04-15T15:04:27;4.78;;;4.00;;
35084;SDS011;21267;51.032;6.998;2023-04-15T15:06:54;5.15;;;3.97;;
35084;SDS011;21267;51.032;6.998;2023-04-15T15:09:21;4.00;;;3.47;;
35084;SDS011;21267;51.032;6.998;2023-04-15T15:11:49;5.65;;;3.42;;
35084;SDS011;21267;51.032;6.998;2023-04-15T15:14:16;4.85;;;3.45;;
35084;SDS011;21267;51.032;6.998;2023-04-15T15:16:43;5.43;;;4.55;;
35084;SDS011;21267;51.032;6.998;2023-04-15T15:19:11;4.65;;;3.92;;
35084;SDS011;21267;51.032;6.998;2023-04-15T15:21:38;7.18;;;4.03;;
35084;SDS011;21267;51.032;6.998;2023-04-15T15:24:04;4.75;;;4.25;;
35084;SDS011;21267;51.032;6.998;2023-04-15T15:26:31;5.55;;;4.10;;
35084;SDS011;21267;51.032;6.998;2023-04-15T15:28:58;3.30;;;2.83;;
35084;SDS011;21267;51.032;6.998;2023-04-15T15:31:24;4.82;;;3.25;;
35084;SDS011;21267;51.032;6.998;2023-04-15T15:33:51;4.03;;;3.22;;
35084;SDS011;21267;51.032;6.998;2023-04-15T15:36:19;4.18;;;2.97;;
35084;SDS011;21267;51.032;6.998;2023-04-15T15:38:46;6.70;;;4.50;;
35084;SDS011;21267;51.032;6.998;2023-04-15T15:41:12;6.70;;;5.00;;
35084;SDS011;21267;51.032;6.998;2023-04-15T15:43:40;5.40;;;4.88;;
35084;SDS011;21267;51.032;6.998;2023-04-15T15:46:07;5.57;;;3.97;;
35084;SDS011;21267;51.032;6.998;2023-04-15T15:48:34;6.05;;;4.00;;
35084;SDS011;21267;51.032;6.998;2023-04-15T15:51:01;3.58;;;3.28;;
35084;SDS011;21267;51.032;6.998;2023-04-15T15:53:29;4.30;;;3.50;;
35084;SDS011;21267;51.032;6.998;2023-04-15T15:55:56;3.70;;;3.40;;